sensor_id;sensor_type;location;lat;lon;timestamp;pressure;altitude;pressure_sealevel;temperature;humidity
49945;BME280;35838;49.134;9.212;2024-03-23T00:53:01;99085.94;;;12.05;100.00
49945;BME280;35838;49.134;9.212;2024-03-23T00:54:32;99082.44;;;12.06;100.00
49945;BME280;35838;49.134;9.212;2024-03-23T00:56:03;99073.56;;;12.15;100.00
49945;BME280;35838;49.134;9.212;2024-03-23T00:57:34;99072.56;;;12.21;100.00
49945;BME280;35838;49.134;9.212;2024-03-23T00:59:05;99075.53;;;12.05;100.00
49945;BME280;35838;49.134;9.212;2024-03-23T01:00:36;99069.78;;;11.89;100.00
49945;BME280;35838;49.134;9.212;2024-03-23T01:02:07;99067.25;;;11.86;100.00
49945;BME280;35838;49.134;9.212;2024-03-23T01:03:38;99063.59;;;11.95;100.00
49945;BME280;35838;49.134;9.212;2024-03-23T01:05:09;99067.75;;;12.04;100.00
49945;BME280;35838;49.134;9.212;2024-03-23T01:06:40;99060.75;;;12.06;100.00
49945;BME280;35838;49.134;9.212;2024-03-23T01:08:13;99064.13;;;12.11;100.00
49945;BME280;35838;49.134;9.212;2024-03-23T01:09:44;99055.34;;;12.15;100.00
49945;BME280;35838;49.134;9.212;2024-03-23T01:11:15;99061.31;;;12.20;100.00
49945;BME280;35838;49.134;9.212;2024-03-23T01:12:46;99053.56;;;12.17;100.00
49945;BME280;35838;49.134;9.212;2024-03-23T01:14:17;99055.13;;;12.25;100.00
49945;BME280;35838;49.134;9.212;2024-03-23T01:15:48;99050.81;;;12.23;100.00
49945;BME280;35838;49.134;9.212;2024-03-23T01:17:19;99051.63;;;12.26;100.00
49945;BME280;35838;49.134;9.212;2024-03-23T01:18:50;99054.84;;;12.37;100.00
49945;BME280;35838;49.134;9.212;2024-03-23T01:20:21;99050.41;;;12.39;100.00
49945;BME280;35838;49.134;9.212;2024-03-23T01:21:52;99053.97;;;12.36;100.00
49945;BME280;35838;49.134;9.212;2024-03-23T01:23:26;99042.78;;;12.33;100.00
49945;BME280;35838;49.134;9.212;2024-03-23T01:24:56;99038.41;;;12.35;100.00
49945;BME280;35838;49.134;9.212;2024-03-23T01:26:27;99044.44;;;12.37;100.00
49945;BME280;35838;49.134;9.212;2024-03-23T01:27:58;99039.28;;;12.34;100.00
49945;BME280;35838;49.134;9.212;2024-03-23T01:29:29;99028.75;;;12.38;100.00
49945;BME280;35838;49.134;9.212;2024-03-23T01:31:00;99028.72;;;12.40;100.00
49945;BME280;35838;49.134;9.212;2024-03-23T01:32:31;99021.06;;;12.34;100.00
49945;BME280;35838;49.134;9.212;2024-03-23T01:34:02;99019.28;;;12.36;100.00
49945;BME280;35838;49.134;9.212;2024-03-23T01:35:33;99014.91;;;12.38;100.00
49945;BME280;35838;49.134;9.212;2024-03-23T01:37:04;99012.44;;;12.33;100.00
49945;BME280;35838;49.134;9.212;2024-03-23T01:38:37;99013.50;;;12.25;100.00
49945;BME280;35838;49.134;9.212;2024-03-23T01:40:09;99015.97;;;12.29;100.00
49945;BME280;35838;49.134;9.212;2024-03-23T01:41:40;99018.69;;;12.25;100.00
49945;BME280;35838;49.134;9.212;2024-03-23T01:43:11;99012.69;;;12.22;100.00
49945;BME280;35838;49.134;9.212;2024-03-23T01:44:42;99019.09;;;12.09;100.00
49945;BME280;35838;49.134;9.212;2024-03-23T01:46:13;99013.25;;;11.99;100.00
49945;BME280;35838;49.134;9.212;2024-03-23T01:47:44;99008.31;;;11.87;100.00
49945;BME280;35838;49.134;9.212;2024-03-23T01:49:15;99011.75;;;11.89;100.00
49945;BME280;35838;49.134;9.212;2024-03-23T01:50:46;99009.41;;;11.76;100.00
49945;BME280;35838;49.134;9.212;2024-03-23T01:52:17;99005.97;;;11.76;100.00
49945;BME280;35838;49.134;9.212;2024-03-23T01:53:50;98998.84;;;11.84;100.00
49945;BME280;35838;49.134;9.212;2024-03-23T01:55:22;98996.91;;;11.93;100.00
49945;BME280;35838;49.134;9.212;2024-03-23T01:56:53;98985.63;;;11.94;100.00
49945;BME280;35838;49.134;9.212;2024-03-23T01:58:25;98980.66;;;11.84;100.00
49945;BME280;35838;49.134;9.212;2024-03-23T01:59:56;98977.94;;;11.89;100.00
49945;BME280;35838;49.134;9.212;2024-03-23T02:01:26;98978.72;;;11.93;100.00
49945;BME280;35838;49.134;9.212;2024-03-23T02:02:57;98978.59;;;11.99;100.00
49945;BME280;35838;49.134;9.212;2024-03-23T02:04:28;98975.16;;;11.98;100.00
49945;BME280;35838;49.134;9.212;2024-03-23T02:05:59;98970.72;;;12.02;100.00
49945;BME280;35838;49.134;9.212;2024-03-23T02:07:30;98974.94;;;12.06;100.00
49945;BME280;35838;49.134;9.212;2024-03-23T02:09:04;98982.84;;;12.03;100.00
49945;BME280;35838;49.134;9.212;2024-03-23T02:10:35;98988.13;;;11.97;100.00
49945;BME280;35838;49.134;9.212;2024-03-23T02:12:06;98979.44;;;11.99;100.00
49945;BME280;35838;49.134;9.212;2024-03-23T02:13:37;98972.59;;;11.95;100.00
49945;BME280;35838;49.134;9.212;2024-03-23T02:15:08;98977.34;;;11.78;100.00
49945;BME280;35838;49.134;9.212;2024-03-23T02:16:39;98971.03;;;11.86;100.00
49945;BME280;35838;49.134;9.212;2024-03-23T02:18:10;98970.28;;;11.83;100.00
49945;BME280;35838;49.134;9.212;2024-03-23T02:19:41;98965.06;;;11.83;100.00
49945;BME280;35838;49.134;9.212;2024-03-23T02:21:12;98966.94;;;11.78;100.00
49945;BME280;35838;49.134;9.212;2024-03-23T02:22:43;98961.69;;;11.79;100.00
49945;BME280;35838;49.134;9.212;2024-03-23T02:24:17;98960.81;;;11.80;100.00
49945;BME280;35838;49.134;9.212;2024-03-23T02:25:48;98961.75;;;11.78;100.00
49945;BME280;35838;49.134;9.212;2024-03-23T02:27:18;98952.34;;;11.72;100.00
49945;BME280;35838;49.134;9.212;2024-03-23T02:28:49;98943.75;;;11.68;100.00
49945;BME280;35838;49.134;9.212;2024-03-23T02:30:20;98939.34;;;11.72;100.00
49945;BME280;35838;49.134;9.212;2024-03-23T02:31:51;98941.94;;;11.72;100.00
49945;BME280;35838;49.134;9.212;2024-03-23T02:33:22;98940.22;;;11.71;100.00
49945;BME280;35838;49.134;9.212;2024-03-23T02:34:53;98948.84;;;11.73;100.00
49945;BME280;35838;49.134;9.212;2024-03-23T02:36:24;98948.91;;;11.70;100.00
49945;BME280;35838;49.134;9.212;2024-03-23T02:37:55;98947.28;;;11.66;100.00
49945;BME280;35838;49.134;9.212;2024-03-23T02:39:28;98935.03;;;11.71;100.00
49945;BME280;35838;49.134;9.212;2024-03-23T02:41:01;98932.75;;;11.58;100.00
49945;BME280;35838;49.134;9.212;2024-03-23T02:42:32;98942.22;;;11.59;100.00
49945;BME280;35838;49.134;9.212;2024-03-23T02:44:03;98958.56;;;11.65;100.00
49945;BME280;35838;49.134;9.212;2024-03-23T02:45:34;98954.06;;;11.73;100.00
49945;BME280;35838;49.134;9.212;2024-03-23T02:47:05;98948.91;;;11.70;100.00
49945;BME280;35838;49.134;9.212;2024-03-23T02:48:36;98961.53;;;11.49;100.00
49945;BME280;35838;49.134;9.212;2024-03-23T02:50:08;98956.91;;;11.62;100.00
49945;BME280;35838;49.134;9.212;2024-03-23T02:51:39;98956.03;;;11.62;100.00
49945;BME280;35838;49.134;9.212;2024-03-23T02:53:10;98935.13;;;11.68;100.00
49945;BME280;35838;49.134;9.212;2024-03-23T02:54:43;98939.28;;;11.75;100.00
49945;BME280;35838;49.134;9.212;2024-03-23T02:56:14;98940.19;;;11.72;100.00
49945;BME280;35838;49.134;9.212;2024-03-23T02:57:46;98932.47;;;11.69;100.00
49945;BME280;35838;49.134;9.212;2024-03-23T02:59:16;98929.00;;;11.69;100.00
49945;BME280;35838;49.134;9.212;2024-03-23T03:00:47;98935.13;;;11.68;100.00
49945;BME280;35838;49.134;9.212;2024-03-23T03:02:18;98941.34;;;11.60;100.00
49945;BME280;35838;49.134;9.212;2024-03-23T03:03:50;98945.84;;;11.52;100.00
49945;BME280;35838;49.134;9.212;2024-03-23T03:05:21;98944.22;;;11.48;100.00
49945;BME280;35838;49.134;9.212;2024-03-23T03:06:52;98934.06;;;11.39;100.00
49945;BME280;35838;49.134;9.212;2024-03-23T03:08:23;98928.91;;;11.36;100.00
49945;BME280;35838;49.134;9.212;2024-03-23T03:09:56;98937.59;;;11.36;100.00
49945;BME280;35838;49.134;9.212;2024-03-23T03:11:27;98933.97;;;11.42;100.00
49945;BME280;35838;49.134;9.212;2024-03-23T03:12:58;98926.16;;;11.42;100.00
49945;BME280;35838;49.134;9.212;2024-03-23T03:14:29;98925.38;;;11.40;100.00
49945;BME280;35838;49.134;9.212;2024-03-23T03:16:00;98924.59;;;11.36;100.00
49945;BME280;35838;49.134;9.212;2024-03-23T03:17:31;98918.69;;;11.29;100.00
49945;BME280;35838;49.134;9.212;2024-03-23T03:19:02;98925.59;;;11.31;100.00
49945;BME280;35838;49.134;9.212;2024-03-23T03:20:33;98916.91;;;11.32;100.00
49945;BME280;35838;49.134;9.212;2024-03-23T03:22:04;98918.06;;;11.18;100.00
49945;BME280;35838;49.134;9.212;2024-03-23T03:23:35;98911.72;;;11.32;100.00
49945;BME280;35838;49.134;9.212;2024-03-23T03:25:09;98909.84;;;11.37;100.00
49945;BME280;35838;49.134;9.212;2024-03-23T03:26:40;98916.69;;;11.41;100.00
49945;BME280;35838;49.134;9.212;2024-03-23T03:28:10;98912.66;;;11.27;100.00
49945;BME280;35838;49.134;9.212;2024-03-23T03:29:41;98907.53;;;11.24;100.00
49945;BME280;35838;49.134;9.212;2024-03-23T03:31:12;98912.59;;;11.31;100.00
49945;BME280;35838;49.134;9.212;2024-03-23T03:32:43;98911.28;;;11.11;100.00
49945;BME280;35838;49.134;9.212;2024-03-23T03:34:14;98917.03;;;11.25;100.00
49945;BME280;35838;49.134;9.212;2024-03-23T03:35:45;98917.16;;;11.19;100.00
49945;BME280;35838;49.134;9.212;2024-03-23T03:37:16;98923.16;;;11.23;100.00
49945;BME280;35838;49.134;9.212;2024-03-23T03:38:47;98921.13;;;10.96;100.00
49945;BME280;35838;49.134;9.212;2024-03-23T03:40:21;98925.09;;;11.13;100.00
49945;BME280;35838;49.134;9.212;2024-03-23T03:41:52;98925.09;;;11.13;100.00
49945;BME280;35838;49.134;9.212;2024-03-23T03:43:23;98914.63;;;11.16;100.00
49945;BME280;35838;49.134;9.212;2024-03-23T03:44:54;98905.94;;;11.17;100.00
49945;BME280;35838;49.134;9.212;2024-03-23T03:46:24;98909.22;;;11.25;100.00
49945;BME280;35838;49.134;9.212;2024-03-23T03:47:55;98906.63;;;11.25;100.00
49945;BME280;35838;49.134;9.212;2024-03-23T03:49:26;98907.47;;;11.27;100.00
49945;BME280;35838;49.134;9.212;2024-03-23T03:50:57;98888.34;;;11.32;100.00
49945;BME280;35838;49.134;9.212;2024-03-23T03:52:28;98892.50;;;11.39;100.00
49945;BME280;35838;49.134;9.212;2024-03-23T03:53:59;98900.59;;;11.25;100.00
49945;BME280;35838;49.134;9.212;2024-03-23T03:55:33;98901.38;;;11.28;100.00
49945;BME280;35838;49.134;9.212;2024-03-23T03:57:04;98896.19;;;11.28;100.00
49945;BME280;35838;49.134;9.212;2024-03-23T03:58:35;98902.53;;;11.15;100.00
49945;BME280;35838;49.134;9.212;2024-03-23T04:00:07;98906.72;;;11.22;100.00
49945;BME280;35838;49.134;9.212;2024-03-23T04:01:38;98886.69;;;11.27;100.00
49945;BME280;35838;49.134;9.212;2024-03-23T04:03:09;98881.47;;;11.27;100.00
49945;BME280;35838;49.134;9.212;2024-03-23T04:04:40;98875.56;;;11.21;100.00
49945;BME280;35838;49.134;9.212;2024-03-23T04:06:11;98885.31;;;11.11;100.00
49945;BME280;35838;49.134;9.212;2024-03-23T04:07:42;98878.16;;;11.22;100.00
49945;BME280;35838;49.134;9.212;2024-03-23T04:09:13;98880.88;;;11.16;100.00
49945;BME280;35838;49.134;9.212;2024-03-23T04:10:47;98886.00;;;11.19;100.00
49945;BME280;35838;49.134;9.212;2024-03-23T04:12:18;98885.75;;;11.30;100.00
49945;BME280;35838;49.134;9.212;2024-03-23T04:13:49;98892.13;;;11.17;100.00
49945;BME280;35838;49.134;9.212;2024-03-23T04:15:19;98891.03;;;11.25;100.00
49945;BME280;35838;49.134;9.212;2024-03-23T04:16:50;98884.88;;;11.31;100.00
49945;BME280;35838;49.134;9.212;2024-03-23T04:18:21;98885.84;;;11.25;100.00
49945;BME280;35838;49.134;9.212;2024-03-23T04:19:52;98878.50;;;11.44;100.00
49945;BME280;35838;49.134;9.212;2024-03-23T04:21:23;98874.16;;;11.45;100.00
49945;BME280;35838;49.134;9.212;2024-03-23T04:22:54;98869.72;;;11.50;100.00
49945;BME280;35838;49.134;9.212;2024-03-23T04:24:25;98872.59;;;11.38;100.00
49945;BME280;35838;49.134;9.212;2024-03-23T04:25:59;98873.41;;;11.40;100.00
49945;BME280;35838;49.134;9.212;2024-03-23T04:27:32;98870.59;;;11.49;100.00
49945;BME280;35838;49.134;9.212;2024-03-23T04:29:03;98886.97;;;11.51;100.00
49945;BME280;35838;49.134;9.212;2024-03-23T04:30:34;98890.28;;;11.58;100.00
49945;BME280;35838;49.134;9.212;2024-03-23T04:32:05;98898.97;;;11.58;100.00
49945;BME280;35838;49.134;9.212;2024-03-23T04:33:36;98896.53;;;11.51;100.00
49945;BME280;35838;49.134;9.212;2024-03-23T04:35:08;98895.69;;;11.50;100.00
49945;BME280;35838;49.134;9.212;2024-03-23T04:36:39;98898.97;;;11.57;100.00
49945;BME280;35838;49.134;9.212;2024-03-23T04:38:10;98891.19;;;11.57;100.00
49945;BME280;35838;49.134;9.212;2024-03-23T04:39:41;98906.66;;;11.63;100.00
49945;BME280;35838;49.134;9.212;2024-03-23T04:41:15;98897.47;;;11.48;100.00
49945;BME280;35838;49.134;9.212;2024-03-23T04:42:46;98894.25;;;11.37;100.00
49945;BME280;35838;49.134;9.212;2024-03-23T04:44:17;98884.47;;;11.48;100.00
49945;BME280;35838;49.134;9.212;2024-03-23T04:45:48;98886.09;;;11.52;100.00
49945;BME280;35838;49.134;9.212;2024-03-23T04:47:19;98885.53;;;11.41;100.00
49945;BME280;35838;49.134;9.212;2024-03-23T04:48:49;98884.66;;;11.40;100.00
49945;BME280;35838;49.134;9.212;2024-03-23T04:50:20;98881.00;;;11.48;100.00
49945;BME280;35838;49.134;9.212;2024-03-23T04:51:51;98880.00;;;11.53;100.00
49945;BME280;35838;49.134;9.212;2024-03-23T04:53:22;98884.50;;;11.47;100.00
49945;BME280;35838;49.134;9.212;2024-03-23T04:54:53;98877.97;;;11.30;100.00
49945;BME280;35838;49.134;9.212;2024-03-23T04:56:27;98884.53;;;11.45;100.00
49945;BME280;35838;49.134;9.212;2024-03-23T04:57:58;98897.84;;;11.31;100.00
49945;BME280;35838;49.134;9.212;2024-03-23T04:59:29;98893.25;;;11.42;100.00
49945;BME280;35838;49.134;9.212;2024-03-23T05:01:00;98900.91;;;11.49;100.00
49945;BME280;35838;49.134;9.212;2024-03-23T05:02:31;98894.72;;;11.54;100.00
49945;BME280;35838;49.134;9.212;2024-03-23T05:04:02;98902.88;;;11.39;100.00
49945;BME280;35838;49.134;9.212;2024-03-23T05:05:33;98892.28;;;11.48;100.00
49945;BME280;35838;49.134;9.212;2024-03-23T05:07:04;98893.16;;;11.47;100.00
49945;BME280;35838;49.134;9.212;2024-03-23T05:08:35;98894.41;;;11.31;100.00
49945;BME280;35838;49.134;9.212;2024-03-23T05:10:06;98906.50;;;11.32;100.00
49945;BME280;35838;49.134;9.212;2024-03-23T05:11:41;98901.53;;;11.22;100.00
49945;BME280;35838;49.134;9.212;2024-03-23T05:13:12;98890.16;;;11.28;100.00
49945;BME280;35838;49.134;9.212;2024-03-23T05:14:43;98892.13;;;11.17;100.00
49945;BME280;35838;49.134;9.212;2024-03-23T05:16:14;98894.41;;;11.31;100.00
49945;BME280;35838;49.134;9.212;2024-03-23T05:17:45;98897.56;;;11.06;100.00
49945;BME280;35838;49.134;9.212;2024-03-23T05:19:16;98900.28;;;11.01;100.00
49945;BME280;35838;49.134;9.212;2024-03-23T05:20:47;98909.00;;;10.97;100.00
49945;BME280;35838;49.134;9.212;2024-03-23T05:22:18;98911.34;;;11.09;100.00
49945;BME280;35838;49.134;9.212;2024-03-23T05:23:49;98914.00;;;11.06;100.00
49945;BME280;35838;49.134;9.212;2024-03-23T05:25:20;98918.94;;;10.78;100.00
49945;BME280;35838;49.134;9.212;2024-03-23T05:26:53;98927.66;;;10.74;100.00
49945;BME280;35838;49.134;9.212;2024-03-23T05:28:24;98929.31;;;10.78;100.00
49945;BME280;35838;49.134;9.212;2024-03-23T05:29:55;98914.81;;;10.68;100.00
49945;BME280;35838;49.134;9.212;2024-03-23T05:31:26;98924.22;;;10.73;100.00
49945;BME280;35838;49.134;9.212;2024-03-23T05:32:57;98917.44;;;10.66;100.00
49945;BME280;35838;49.134;9.212;2024-03-23T05:34:28;98924.41;;;10.62;100.00
49945;BME280;35838;49.134;9.212;2024-03-23T05:36:00;98926.16;;;10.62;100.00
49945;BME280;35838;49.134;9.212;2024-03-23T05:37:31;98918.41;;;10.59;100.00
49945;BME280;35838;49.134;9.212;2024-03-23T05:39:02;98926.03;;;10.68;100.00
49945;BME280;35838;49.134;9.212;2024-03-23T05:40:33;98912.16;;;10.69;100.00
49945;BME280;35838;49.134;9.212;2024-03-23T05:42:06;98916.63;;;10.62;100.00
49945;BME280;35838;49.134;9.212;2024-03-23T05:43:38;98904.47;;;10.64;100.00
49945;BME280;35838;49.134;9.212;2024-03-23T05:45:09;98912.16;;;10.71;100.00
49945;BME280;35838;49.134;9.212;2024-03-23T05:46:40;98921.94;;;10.56;100.00
49945;BME280;35838;49.134;9.212;2024-03-23T05:48:11;98923.78;;;10.49;100.00
49945;BME280;35838;49.134;9.212;2024-03-23T05:49:42;98924.44;;;10.61;100.00
49945;BME280;35838;49.134;9.212;2024-03-23T05:51:13;98921.19;;;10.51;100.00
49945;BME280;35838;49.134;9.212;2024-03-23T05:52:44;98925.66;;;10.43;100.00
49945;BME280;35838;49.134;9.212;2024-03-23T05:54:15;98928.25;;;10.43;100.00
49945;BME280;35838;49.134;9.212;2024-03-23T05:55:45;98948.13;;;10.44;100.00
49945;BME280;35838;49.134;9.212;2024-03-23T05:57:19;98945.69;;;10.34;100.00
49945;BME280;35838;49.134;9.212;2024-03-23T05:58:50;98955.25;;;10.29;100.00
49945;BME280;35838;49.134;9.212;2024-03-23T06:00:21;98963.00;;;10.32;100.00
49945;BME280;35838;49.134;9.212;2024-03-23T06:01:52;98966.59;;;10.24;100.00
49945;BME280;35838;49.134;9.212;2024-03-23T06:03:23;98979.69;;;10.17;100.00
49945;BME280;35838;49.134;9.212;2024-03-23T06:04:54;98970.19;;;10.16;100.00
49945;BME280;35838;49.134;9.212;2024-03-23T06:06:25;98964.16;;;10.16;100.00
49945;BME280;35838;49.134;9.212;2024-03-23T06:07:56;98967.72;;;10.10;100.00
49945;BME280;35838;49.134;9.212;2024-03-23T06:09:26;98956.63;;;10.02;100.00
49945;BME280;35838;49.134;9.212;2024-03-23T06:10:57;98977.28;;;10.05;100.00
49945;BME280;35838;49.134;9.212;2024-03-23T06:12:31;98998.13;;;10.00;100.00
49945;BME280;35838;49.134;9.212;2024-03-23T06:14:02;98999.94;;;9.94;100.00
49945;BME280;35838;49.134;9.212;2024-03-23T06:15:33;99011.22;;;9.91;100.00
49945;BME280;35838;49.134;9.212;2024-03-23T06:17:04;99022.44;;;9.92;100.00
49945;BME280;35838;49.134;9.212;2024-03-23T06:18:35;99006.97;;;9.87;100.00
49945;BME280;35838;49.134;9.212;2024-03-23T06:20:06;99007.75;;;9.91;100.00
49945;BME280;35838;49.134;9.212;2024-03-23T06:21:37;98993.13;;;9.88;100.00
49945;BME280;35838;49.134;9.212;2024-03-23T06:23:13;99004.41;;;9.84;100.00
49945;BME280;35838;49.134;9.212;2024-03-23T06:24:44;99007.03;;;9.82;100.00
49945;BME280;35838;49.134;9.212;2024-03-23T06:26:15;99010.53;;;9.80;100.00
49945;BME280;35838;49.134;9.212;2024-03-23T06:27:48;99008.03;;;9.74;100.00
49945;BME280;35838;49.134;9.212;2024-03-23T06:29:19;99004.53;;;9.75;100.00
49945;BME280;35838;49.134;9.212;2024-03-23T06:30:50;99014.91;;;9.75;100.00
49945;BME280;35838;49.134;9.212;2024-03-23T06:32:22;99021.88;;;9.72;100.00
49945;BME280;35838;49.134;9.212;2024-03-23T06:33:52;99023.59;;;9.74;100.00
49945;BME280;35838;49.134;9.212;2024-03-23T06:35:25;99031.22;;;9.81;100.00
49945;BME280;35838;49.134;9.212;2024-03-23T06:36:56;99046.78;;;9.81;100.00
49945;BME280;35838;49.134;9.212;2024-03-23T06:38:27;99046.84;;;9.77;100.00
49945;BME280;35838;49.134;9.212;2024-03-23T06:39:58;99053.78;;;9.76;100.00
49945;BME280;35838;49.134;9.212;2024-03-23T06:41:29;99060.00;;;9.64;100.00
49945;BME280;35838;49.134;9.212;2024-03-23T06:43:03;99055.69;;;9.62;100.00
49945;BME280;35838;49.134;9.212;2024-03-23T06:44:34;99045.38;;;9.57;100.00
49945;BME280;35838;49.134;9.212;2024-03-23T06:46:05;99047.97;;;9.57;100.00
49945;BME280;35838;49.134;9.212;2024-03-23T06:47:36;99057.41;;;9.63;100.00
49945;BME280;35838;49.134;9.212;2024-03-23T06:49:07;99058.41;;;9.54;100.00
49945;BME280;35838;49.134;9.212;2024-03-23T06:50:38;99088.66;;;9.49;100.00
49945;BME280;35838;49.134;9.212;2024-03-23T06:52:09;99100.97;;;9.33;100.00
49945;BME280;35838;49.134;9.212;2024-03-23T06:53:40;99110.72;;;9.11;100.00
49945;BME280;35838;49.134;9.212;2024-03-23T06:55:11;99112.56;;;8.98;100.00
49945;BME280;35838;49.134;9.212;2024-03-23T06:56:41;99118.69;;;8.89;100.00
49945;BME280;35838;49.134;9.212;2024-03-23T06:58:15;99124.00;;;8.73;100.00
49945;BME280;35838;49.134;9.212;2024-03-23T06:59:46;99120.56;;;8.71;100.00
49945;BME280;35838;49.134;9.212;2024-03-23T07:01:17;99130.00;;;8.78;100.00
49945;BME280;35838;49.134;9.212;2024-03-23T07:02:48;99134.38;;;8.70;100.00
49945;BME280;35838;49.134;9.212;2024-03-23T07:04:19;99140.41;;;8.69;100.00
49945;BME280;35838;49.134;9.212;2024-03-23T07:05:50;99145.69;;;8.55;100.00
49945;BME280;35838;49.134;9.212;2024-03-23T07:07:21;99144.75;;;8.66;100.00
49945;BME280;35838;49.134;9.212;2024-03-23T07:08:52;99145.66;;;8.60;100.00
49945;BME280;35838;49.134;9.212;2024-03-23T07:10:23;99149.84;;;8.78;100.00
49945;BME280;35838;49.134;9.212;2024-03-23T07:11:54;99156.84;;;8.68;100.00
49945;BME280;35838;49.134;9.212;2024-03-23T07:13:28;99156.88;;;8.62;100.00
49945;BME280;35838;49.134;9.212;2024-03-23T07:14:59;99168.19;;;8.49;100.00
49945;BME280;35838;49.134;9.212;2024-03-23T07:16:30;99162.16;;;8.42;100.00
49945;BME280;35838;49.134;9.212;2024-03-23T07:18:01;99169.84;;;8.57;100.00
49945;BME280;35838;49.134;9.212;2024-03-23T07:19:32;99169.81;;;8.64;100.00
49945;BME280;35838;49.134;9.212;2024-03-23T07:21:03;99190.34;;;8.81;100.00
49945;BME280;35838;49.134;9.212;2024-03-23T07:22:34;99185.41;;;8.43;100.00
49945;BME280;35838;49.134;9.212;2024-03-23T07:24:05;99201.03;;;8.28;100.00
49945;BME280;35838;49.134;9.212;2024-03-23T07:25:36;99203.63;;;8.26;100.00
49945;BME280;35838;49.134;9.212;2024-03-23T07:27:07;99207.06;;;8.27;100.00
49945;BME280;35838;49.134;9.212;2024-03-23T07:28:42;99206.22;;;8.25;100.00
49945;BME280;35838;49.134;9.212;2024-03-23T07:30:14;99217.44;;;8.21;100.00
49945;BME280;35838;49.134;9.212;2024-03-23T07:31:45;99214.88;;;8.21;100.00
49945;BME280;35838;49.134;9.212;2024-03-23T07:33:15;99225.16;;;8.27;100.00
49945;BME280;35838;49.134;9.212;2024-03-23T07:34:46;99231.22;;;8.21;100.00
49945;BME280;35838;49.134;9.212;2024-03-23T07:36:17;99242.44;;;8.22;100.00
49945;BME280;35838;49.134;9.212;2024-03-23T07:37:48;99238.13;;;8.18;100.00
49945;BME280;35838;49.134;9.212;2024-03-23T07:39:19;99228.63;;;8.26;100.00
49945;BME280;35838;49.134;9.212;2024-03-23T07:40:50;99219.03;;;8.43;100.00
49945;BME280;35838;49.134;9.212;2024-03-23T07:42:21;99225.91;;;8.54;100.00
49945;BME280;35838;49.134;9.212;2024-03-23T07:43:55;99232.78;;;8.56;100.00
49945;BME280;35838;49.134;9.212;2024-03-23T07:45:25;99232.78;;;8.55;100.00
49945;BME280;35838;49.134;9.212;2024-03-23T07:46:56;99227.69;;;8.39;100.00
49945;BME280;35838;49.134;9.212;2024-03-23T07:48:27;99236.28;;;8.40;100.00
49945;BME280;35838;49.134;9.212;2024-03-23T07:49:58;99247.44;;;8.56;100.00
49945;BME280;35838;49.134;9.212;2024-03-23T07:51:29;99243.94;;;8.63;100.00
49945;BME280;35838;49.134;9.212;2024-03-23T07:53:00;99246.50;;;8.71;100.00
49945;BME280;35838;49.134;9.212;2024-03-23T07:54:31;99246.66;;;8.35;100.00
49945;BME280;35838;49.134;9.212;2024-03-23T07:56:04;99252.75;;;8.31;100.00
49945;BME280;35838;49.134;9.212;2024-03-23T07:57:35;99252.66;;;8.50;100.00
49945;BME280;35838;49.134;9.212;2024-03-23T07:59:09;99259.47;;;8.66;100.00
49945;BME280;35838;49.134;9.212;2024-03-23T08:00:40;99269.03;;;8.50;100.00
49945;BME280;35838;49.134;9.212;2024-03-23T08:02:11;99269.91;;;8.49;100.00
49945;BME280;35838;49.134;9.212;2024-03-23T08:03:42;99280.22;;;8.54;100.00
49945;BME280;35838;49.134;9.212;2024-03-23T08:05:13;99282.81;;;8.51;100.00
49945;BME280;35838;49.134;9.212;2024-03-23T08:06:44;99296.63;;;8.54;100.00
49945;BME280;35838;49.134;9.212;2024-03-23T08:08:15;99303.50;;;8.52;100.00
49945;BME280;35838;49.134;9.212;2024-03-23T08:09:46;99294.09;;;8.36;100.00
49945;BME280;35838;49.134;9.212;2024-03-23T08:11:17;99301.88;;;8.31;100.00
49945;BME280;35838;49.134;9.212;2024-03-23T08:12:48;99303.53;;;8.46;100.00
49945;BME280;35838;49.134;9.212;2024-03-23T08:14:22;99314.72;;;8.51;100.00
49945;BME280;35838;49.134;9.212;2024-03-23T08:15:55;99313.00;;;8.50;100.00
49945;BME280;35838;49.134;9.212;2024-03-23T08:17:26;99318.19;;;8.47;100.00
49945;BME280;35838;49.134;9.212;2024-03-23T08:18:57;99319.03;;;8.52;100.00
49945;BME280;35838;49.134;9.212;2024-03-23T08:20:28;99318.09;;;8.61;100.00
49945;BME280;35838;49.134;9.212;2024-03-23T08:21:59;99324.09;;;8.71;100.00
49945;BME280;35838;49.134;9.212;2024-03-23T08:23:30;99319.81;;;8.67;100.00
49945;BME280;35838;49.134;9.212;2024-03-23T08:25:01;99328.44;;;8.64;100.00
49945;BME280;35838;49.134;9.212;2024-03-23T08:26:33;99337.13;;;8.51;100.00
49945;BME280;35838;49.134;9.212;2024-03-23T08:28:04;99352.59;;;8.63;100.00
49945;BME280;35838;49.134;9.212;2024-03-23T08:29:38;99338.88;;;8.49;100.00
49945;BME280;35838;49.134;9.212;2024-03-23T08:31:09;99344.84;;;8.63;100.00
49945;BME280;35838;49.134;9.212;2024-03-23T08:32:41;99353.47;;;8.60;100.00
49945;BME280;35838;49.134;9.212;2024-03-23T08:34:12;99362.94;;;8.60;100.00
49945;BME280;35838;49.134;9.212;2024-03-23T08:35:43;99366.41;;;8.60;100.00
49945;BME280;35838;49.134;9.212;2024-03-23T08:37:23;99372.50;;;8.39;100.00
49945;BME280;35838;49.134;9.212;2024-03-23T08:38:53;99370.78;;;8.34;100.00
49945;BME280;35838;49.134;9.212;2024-03-23T08:40:24;99374.22;;;8.45;100.00
49945;BME280;35838;49.134;9.212;2024-03-23T08:41:55;99391.41;;;8.63;100.00
49945;BME280;35838;49.134;9.212;2024-03-23T08:43:26;99394.91;;;8.50;100.00
49945;BME280;35838;49.134;9.212;2024-03-23T08:45:00;99382.84;;;8.41;100.00
49945;BME280;35838;49.134;9.212;2024-03-23T08:46:31;99377.59;;;8.69;100.00
49945;BME280;35838;49.134;9.212;2024-03-23T08:48:02;99394.03;;;8.57;100.00
49945;BME280;35838;49.134;9.212;2024-03-23T08:49:33;99390.53;;;8.64;100.00
49945;BME280;35838;49.134;9.212;2024-03-23T08:51:04;99396.53;;;8.72;100.00